createdAt,value
2022-08-12T00:00:08.761Z,73.00
2022-08-12T00:02:54.762Z,73.20
2022-08-12T00:06:00.460Z,73.50
2022-08-12T00:08:48.803Z,74.00
2022-08-12T00:11:34.380Z,74.20
2022-08-12T00:14:19.618Z,74.20
2022-08-12T00:17:06.281Z,74.50
2022-08-12T00:19:51.962Z,74.90
2022-08-12T00:22:38.868Z,75.50
2022-08-12T00:25:55.794Z,75.90
2022-08-12T00:28:31.041Z,76.20
2022-08-12T00:31:16.654Z,76.60
2022-08-12T00:34:02.454Z,76.90
2022-08-12T00:36:50.256Z,77.20
2022-08-12T00:39:36.291Z,77.30
2022-08-12T00:42:13.111Z,77.60
2022-08-12T00:44:42.415Z,78.10
2022-08-12T00:47:11.646Z,78.10
2022-08-12T00:49:55.094Z,78.30
2022-08-12T00:52:23.361Z,78.40
2022-08-12T00:54:51.648Z,79.10
2022-08-12T00:57:24.084Z,79.40
2022-08-12T01:00:10.385Z,80.20
2022-08-12T01:02:42.725Z,79.60
2022-08-12T01:05:31.888Z,80.00
2022-08-12T01:08:18.125Z,80.10
2022-08-12T01:11:05.580Z,80.80
2022-08-12T01:13:36.130Z,81.00
2022-08-12T01:16:07.537Z,81.30
2022-08-12T01:18:36.988Z,81.30
2022-08-12T01:21:12.159Z,82.20
2022-08-12T01:24:00.999Z,81.90
2022-08-12T01:26:49.088Z,82.00
2022-08-12T01:29:23.226Z,82.50
2022-08-12T01:31:51.849Z,82.40
2022-08-12T01:34:35.704Z,82.70
2022-08-12T01:37:04.883Z,82.80
2022-08-12T01:40:31.720Z,82.40
2022-08-12T01:42:50.574Z,82.30
2022-08-12T01:45:24.583Z,82.70
2022-08-12T01:48:29.982Z,82.40
2022-08-12T01:52:15.373Z,82.30
2022-08-12T01:54:12.530Z,82.80
2022-08-12T01:56:51.693Z,82.60
2022-08-12T01:59:53.395Z,82.80
2022-08-12T02:02:32.289Z,82.90
2022-08-12T02:05:26.511Z,82.70
2022-08-12T02:08:26.680Z,82.70
2022-08-12T02:11:19.120Z,82.90
2022-08-12T02:13:56.784Z,83.40
2022-08-12T02:16:41.656Z,83.60
2022-08-12T02:19:38.334Z,83.70
2022-08-12T02:22:31.268Z,83.70
2022-08-12T02:25:13.144Z,84.00
2022-08-12T02:27:47.789Z,84.20
2022-08-12T02:30:19.418Z,84.50
2022-08-12T02:32:48.238Z,84.50
2022-08-12T02:35:21.230Z,85.20
2022-08-12T02:37:52.810Z,84.70
2022-08-12T02:40:21.531Z,84.90
2022-08-12T02:42:54.248Z,85.20
2022-08-12T02:45:40.142Z,85.30
2022-08-12T02:48:09.298Z,85.20
2022-08-12T02:50:42.122Z,85.40
2022-08-12T02:53:10.494Z,85.50
2022-08-12T02:55:37.492Z,85.30
2022-08-12T02:58:12.597Z,85.00
2022-08-12T03:00:42.301Z,85.40
2022-08-12T03:03:12.633Z,85.30
2022-08-12T03:05:54.432Z,85.10
2022-08-12T03:08:32.662Z,85.10
2022-08-12T03:11:14.587Z,85.60
2022-08-12T03:13:47.340Z,85.00
2022-08-12T03:16:14.810Z,85.00
2022-08-12T03:18:46.169Z,85.10
2022-08-12T03:21:16.891Z,85.20
2022-08-12T03:23:46.024Z,85.30
2022-08-12T03:26:14.717Z,85.50
2022-08-12T03:28:51.368Z,85.30
2022-08-12T03:31:22.819Z,85.60
2022-08-12T03:34:01.844Z,85.80
2022-08-12T03:36:36.437Z,85.90
2022-08-12T03:39:35.442Z,85.90
2022-08-12T03:42:25.324Z,86.20
2022-08-12T03:45:52.558Z,86.10
2022-08-12T03:48:39.495Z,86.10
2022-08-12T03:51:26.351Z,86.30
2022-08-12T03:54:12.104Z,86.40
2022-08-12T03:56:58.063Z,86.60
2022-08-12T03:59:43.548Z,86.80
2022-08-12T04:02:17.331Z,86.80
2022-08-12T04:04:45.758Z,87.60
2022-08-12T04:07:13.837Z,87.60
2022-08-12T04:09:43.674Z,87.50
2022-08-12T04:12:32.748Z,87.80
2022-08-12T04:15:00.769Z,88.00
2022-08-12T04:17:28.260Z,88.20
2022-08-12T04:19:56.887Z,87.50
2022-08-12T04:22:26.413Z,87.50
2022-08-12T04:24:54.451Z,87.60
2022-08-12T04:27:21.347Z,88.20
2022-08-12T04:30:30.212Z,87.50
2022-08-12T04:32:37.693Z,87.50
2022-08-12T04:35:08.124Z,87.50
2022-08-12T04:37:58.363Z,88.20
2022-08-12T04:40:28.170Z,88.10
2022-08-12T04:42:56.107Z,88.10
2022-08-12T04:45:23.052Z,88.70
2022-08-12T04:47:49.897Z,88.80
2022-08-12T04:50:35.202Z,89.00
2022-08-12T04:53:05.741Z,88.70
2022-08-12T04:55:34.510Z,88.40
2022-08-12T04:58:01.594Z,88.50
2022-08-12T05:00:28.543Z,88.30
2022-08-12T05:02:55.659Z,88.20
2022-08-12T05:05:25.485Z,88.30
2022-08-12T05:07:54.569Z,88.10
2022-08-12T05:10:33.758Z,88.10
2022-08-12T05:13:07.574Z,87.90
2022-08-12T05:15:37.853Z,88.10
2022-08-12T05:18:24.642Z,87.60
2022-08-12T05:20:51.963Z,87.20
2022-08-12T05:23:21.206Z,87.00
2022-08-12T05:25:51.424Z,86.90
2022-08-12T05:28:18.515Z,86.80
2022-08-12T05:30:46.196Z,86.50
2022-08-12T05:33:13.669Z,86.30
2022-08-12T05:35:43.379Z,85.80
2022-08-12T05:38:33.494Z,85.30
2022-08-12T05:41:01.763Z,84.70
2022-08-12T05:43:29.047Z,84.20
2022-08-12T05:45:59.407Z,83.80
2022-08-12T05:48:26.674Z,83.50
2022-08-12T05:50:53.560Z,83.10
2022-08-12T05:53:20.553Z,83.10
2022-08-12T05:55:47.363Z,82.30
2022-08-12T05:58:14.067Z,82.10
2022-08-12T06:00:42.454Z,82.10
2022-08-12T06:03:09.470Z,81.60
2022-08-12T06:05:54.260Z,80.80
2022-08-12T06:08:23.745Z,80.10
2022-08-12T06:10:51.125Z,80.60
2022-08-12T06:13:28.734Z,80.10
2022-08-12T06:16:09.810Z,80.10
2022-08-12T06:18:40.007Z,79.80
2022-08-12T06:21:12.330Z,78.60
2022-08-12T06:23:42.727Z,78.50
2022-08-12T06:26:12.755Z,77.90
2022-08-12T06:28:40.795Z,77.60
2022-08-12T06:31:25.171Z,78.20
2022-08-12T06:33:55.272Z,77.20
2022-08-12T06:36:29.958Z,76.80
2022-08-12T06:38:59.664Z,76.10
2022-08-12T06:42:05.096Z,76.10
2022-08-12T06:44:32.171Z,75.50
2022-08-12T06:46:59.165Z,74.70
2022-08-12T06:49:27.618Z,74.40
2022-08-12T06:51:57.099Z,73.40
2022-08-12T06:54:31.851Z,73.10
2022-08-12T06:57:04.186Z,72.90
2022-08-12T06:59:32.286Z,72.60
2022-08-12T07:01:59.221Z,71.50
2022-08-12T07:04:41.515Z,71.40
2022-08-12T07:07:09.543Z,70.50
2022-08-12T07:10:04.538Z,70.50
2022-08-12T07:12:28.367Z,70.50
2022-08-12T07:14:59.492Z,70.40
2022-08-12T07:17:35.455Z,69.50
2022-08-12T07:20:09.887Z,69.30
2022-08-12T07:22:37.498Z,68.80
2022-08-12T07:25:22.816Z,68.30
2022-08-12T07:27:54.339Z,68.10
2022-08-12T07:30:23.112Z,67.50
2022-08-12T07:32:51.397Z,67.30
2022-08-12T07:35:19.392Z,67.50
2022-08-12T07:37:47.238Z,66.80
2022-08-12T07:40:15.446Z,65.90
2022-08-12T07:42:44.046Z,65.90
2022-08-12T07:45:12.371Z,66.40
2022-08-12T07:47:43.624Z,65.70
2022-08-12T07:50:13.359Z,66.20
2022-08-12T07:52:43.017Z,65.10
2022-08-12T07:55:11.797Z,65.30
2022-08-12T07:57:50.401Z,65.10
2022-08-12T08:00:18.216Z,64.60
2022-08-12T08:02:45.056Z,65.00
2022-08-12T08:05:12.489Z,64.80
2022-08-12T08:07:39.280Z,63.80
2022-08-12T08:10:10.830Z,63.40
2022-08-12T08:12:58.580Z,63.10
2022-08-12T08:15:51.207Z,63.10
2022-08-12T08:18:26.790Z,62.60
2022-08-12T08:20:56.595Z,62.20
2022-08-12T08:23:34.922Z,62.00
2022-08-12T08:26:02.075Z,62.20
2022-08-12T08:28:29.270Z,61.20
2022-08-12T08:30:55.982Z,60.10
2022-08-12T08:34:04.812Z,59.90
2022-08-12T08:36:16.484Z,58.80
2022-08-12T08:38:57.801Z,57.50
2022-08-12T08:42:16.660Z,57.30
2022-08-12T08:44:39.402Z,56.40
2022-08-12T08:47:08.291Z,55.90
2022-08-12T08:49:38.161Z,56.30
2022-08-12T08:52:09.733Z,55.70
2022-08-12T08:54:37.769Z,54.80
2022-08-12T08:57:08.214Z,53.80
2022-08-12T08:59:35.231Z,53.50
2022-08-12T09:02:02.617Z,53.60
2022-08-12T09:05:12.753Z,53.20
2022-08-12T09:07:58.712Z,54.10
2022-08-12T09:10:15.464Z,52.50
2022-08-12T09:13:23.377Z,52.20
2022-08-12T09:15:57.760Z,52.50
2022-08-12T09:18:33.118Z,51.00
2022-08-12T09:21:02.021Z,50.70
2022-08-12T09:23:59.871Z,50.80
2022-08-12T09:26:18.882Z,51.10
2022-08-12T09:32:07.314Z,51.90
2022-08-12T09:34:29.146Z,50.90
2022-08-12T09:37:02.905Z,50.00
2022-08-12T09:40:02.175Z,50.10
2022-08-12T09:46:19.336Z,50.40
2022-08-12T09:48:35.125Z,49.40
2022-08-12T09:51:04.746Z,49.00
2022-08-12T09:53:45.617Z,49.10
2022-08-12T09:56:57.995Z,48.70
2022-08-12T09:59:07.974Z,48.50
2022-08-12T10:02:42.864Z,49.10
2022-08-12T10:04:28.020Z,47.80
2022-08-12T10:06:57.961Z,47.50
2022-08-12T10:09:56.925Z,47.60
2022-08-12T10:12:33.370Z,47.70
2022-08-12T10:15:01.974Z,47.40
2022-08-12T10:17:29.312Z,46.80
2022-08-12T10:20:05.371Z,47.20
2022-08-12T10:22:40.788Z,47.50
2022-08-12T10:26:18.961Z,47.70
2022-08-12T10:28:39.401Z,48.30
2022-08-12T10:31:16.501Z,48.10
2022-08-12T10:33:55.549Z,47.40
2022-08-12T10:36:40.444Z,47.00
2022-08-12T10:40:00.833Z,46.50
2022-08-12T10:42:29.888Z,46.40
2022-08-12T10:45:09.052Z,44.80
2022-08-12T10:48:19.134Z,45.00
2022-08-12T10:51:00.975Z,45.70
2022-08-12T10:53:20.225Z,44.90
2022-08-12T10:56:08.062Z,44.90
2022-08-12T10:58:36.609Z,45.30
2022-08-12T11:01:49.331Z,44.60
2022-08-12T11:04:22.850Z,44.00
2022-08-12T11:07:07.995Z,44.50
2022-08-12T11:09:55.670Z,45.20
2022-08-12T11:12:54.986Z,45.00
2022-08-12T11:15:18.514Z,43.90
2022-08-12T11:17:53.866Z,44.00
2022-08-12T11:20:24.332Z,43.80
2022-08-12T11:23:25.669Z,44.20
2022-08-12T11:25:57.555Z,44.10
2022-08-12T11:28:33.573Z,44.60
2022-08-12T11:31:02.635Z,44.30
2022-08-12T11:34:04.407Z,44.20
2022-08-12T11:36:16.982Z,43.80
2022-08-12T11:38:50.562Z,43.90
2022-08-12T11:41:31.668Z,43.90
2022-08-12T11:44:01.985Z,43.50
2022-08-12T11:46:51.414Z,42.80
2022-08-12T11:49:31.305Z,43.20
2022-08-12T11:52:03.888Z,43.20
2022-08-12T11:54:31.460Z,43.20
2022-08-12T11:57:00.569Z,43.40
2022-08-12T12:02:20.567Z,42.20
2022-08-12T12:04:52.461Z,42.30
2022-08-12T12:08:36.391Z,42.30
2022-08-12T12:10:11.789Z,43.40
2022-08-12T12:12:38.704Z,42.40
2022-08-12T12:15:09.523Z,42.90
2022-08-12T12:17:38.753Z,43.00
2022-08-12T12:20:11.488Z,42.60
2022-08-12T12:22:41.795Z,42.40
2022-08-12T12:25:13.761Z,41.90
2022-08-12T12:28:05.252Z,42.00
2022-08-12T12:30:35.324Z,42.20
2022-08-12T12:33:03.886Z,41.40
2022-08-12T12:36:06.078Z,41.70
2022-08-12T12:38:19.968Z,41.80
2022-08-12T12:40:50.217Z,41.70
2022-08-12T12:43:28.628Z,41.60
2022-08-12T12:46:05.647Z,42.40
2022-08-12T12:48:35.431Z,42.40
2022-08-12T12:51:48.334Z,42.30
2022-08-12T12:54:14.173Z,41.80
2022-08-12T12:56:58.272Z,41.80
2022-08-12T12:59:54.996Z,41.60
2022-08-12T13:02:31.837Z,41.20
2022-08-12T13:05:00.183Z,40.80
2022-08-12T13:07:49.425Z,41.20
2022-08-12T13:10:20.161Z,41.40
2022-08-12T13:12:52.779Z,42.00
2022-08-12T13:15:43.618Z,42.70
2022-08-12T13:18:16.505Z,41.60
2022-08-12T13:20:47.276Z,41.80
2022-08-12T13:23:36.057Z,41.40
2022-08-12T13:26:29.742Z,41.40
2022-08-12T13:28:58.588Z,41.20
2022-08-12T13:31:35.655Z,41.10
2022-08-12T13:34:31.812Z,40.80
2022-08-12T13:37:12.236Z,41.00
2022-08-12T13:39:53.608Z,40.80
2022-08-12T13:42:26.157Z,41.20
2022-08-12T13:44:54.833Z,41.10
2022-08-12T13:47:22.637Z,41.50
2022-08-12T13:49:54.832Z,40.50
2022-08-12T13:52:25.826Z,40.70
2022-08-12T13:54:56.105Z,39.80
2022-08-12T13:57:44.547Z,40.20
2022-08-12T14:00:20.431Z,40.40
2022-08-12T14:03:03.505Z,40.80
2022-08-12T14:05:39.093Z,40.90
2022-08-12T14:08:10.906Z,40.90
2022-08-12T14:10:51.480Z,41.20
2022-08-12T14:14:02.767Z,41.30
2022-08-12T14:16:37.835Z,40.70
2022-08-12T14:19:10.436Z,40.70
2022-08-12T14:22:19.991Z,40.30
2022-08-12T14:24:48.817Z,40.10
2022-08-12T14:28:02.714Z,41.00
2022-08-12T14:30:17.207Z,41.20
2022-08-12T14:32:51.408Z,40.50
2022-08-12T14:35:20.034Z,40.90
2022-08-12T14:37:57.016Z,42.10
2022-08-12T14:40:30.103Z,42.90
2022-08-12T14:42:59.658Z,43.90
2022-08-12T14:45:45.401Z,44.40
2022-08-12T14:48:24.284Z,44.50
2022-08-12T14:52:16.091Z,44.10
2022-08-12T14:59:57.517Z,42.20
2022-08-12T15:02:22.733Z,42.30
2022-08-12T15:04:56.025Z,42.00
2022-08-12T15:07:34.370Z,42.30
2022-08-12T15:10:12.709Z,42.80
2022-08-12T15:12:43.093Z,42.80
2022-08-12T15:15:11.255Z,42.80
2022-08-12T15:17:39.182Z,43.40
2022-08-12T15:20:30.990Z,44.40
2022-08-12T15:22:57.887Z,44.40
2022-08-12T15:25:27.042Z,43.50
2022-08-12T15:28:20.388Z,43.10
2022-08-12T15:30:42.272Z,42.50
2022-08-12T15:33:12.927Z,42.40
2022-08-12T15:35:52.939Z,42.00
2022-08-12T15:38:25.171Z,42.00
2022-08-12T15:40:54.119Z,41.70
2022-08-12T15:44:16.947Z,42.00
2022-08-12T15:46:15.110Z,43.10
2022-08-12T15:48:50.184Z,43.80
2022-08-12T15:51:58.507Z,44.10
2022-08-12T15:54:33.641Z,43.70
2022-08-12T15:57:03.355Z,43.10
2022-08-12T15:59:51.934Z,42.70
2022-08-12T16:02:27.026Z,42.70
2022-08-12T16:04:55.027Z,42.20
2022-08-12T16:07:29.827Z,42.70
2022-08-12T16:10:07.221Z,43.30
2022-08-12T16:12:43.679Z,44.30
2022-08-12T16:15:25.021Z,45.20
2022-08-12T16:18:19.253Z,45.20
2022-08-12T16:20:47.225Z,45.00
2022-08-12T16:23:35.989Z,44.90
2022-08-12T16:26:15.400Z,45.30
2022-08-12T16:28:47.531Z,44.60
2022-08-12T16:31:23.452Z,44.40
2022-08-12T16:33:56.422Z,44.50
2022-08-12T16:36:37.265Z,44.80
2022-08-12T16:39:06.210Z,45.40
2022-08-12T16:41:39.443Z,45.80
2022-08-12T16:44:08.859Z,46.50
2022-08-12T16:46:37.788Z,46.60
2022-08-12T16:49:13.041Z,46.90
2022-08-12T16:51:46.685Z,47.40
2022-08-12T16:54:17.075Z,47.10
2022-08-12T16:56:58.458Z,47.10
2022-08-12T16:59:53.508Z,47.10
2022-08-12T17:02:18.019Z,47.10
2022-08-12T17:05:03.436Z,47.40
2022-08-12T17:07:36.579Z,48.20
2022-08-12T17:10:07.092Z,48.70
2022-08-12T17:12:37.719Z,49.30
2022-08-12T17:15:50.455Z,49.50
2022-08-12T17:18:38.889Z,49.50
2022-08-12T17:20:46.426Z,48.90
2022-08-12T17:23:16.459Z,49.20
2022-08-12T17:25:48.347Z,48.90
2022-08-12T17:28:16.782Z,48.70
2022-08-12T17:30:45.813Z,48.60
2022-08-12T17:33:25.570Z,48.30
2022-08-12T17:35:53.469Z,48.60
2022-08-12T17:38:21.243Z,48.70
2022-08-12T17:40:48.558Z,48.90
2022-08-12T17:43:54.720Z,48.70
2022-08-12T17:46:13.160Z,48.90
2022-08-12T17:48:55.011Z,48.50
2022-08-12T17:51:25.544Z,48.90
2022-08-12T17:54:10.667Z,49.10
2022-08-12T17:56:55.219Z,49.20
2022-08-12T17:59:47.769Z,49.90
2022-08-12T18:02:25.529Z,50.20
2022-08-12T18:05:04.948Z,50.00
2022-08-12T18:07:35.693Z,50.20
2022-08-12T18:10:09.365Z,50.30
2022-08-12T18:12:51.001Z,50.30
2022-08-12T18:15:27.042Z,50.20
2022-08-12T18:18:10.446Z,50.60
2022-08-12T18:20:49.157Z,50.80
2022-08-12T18:23:24.224Z,50.80
2022-08-12T18:26:17.625Z,51.10
2022-08-12T18:28:48.236Z,51.20
2022-08-12T18:31:44.432Z,51.90
2022-08-12T18:34:24.211Z,52.00
2022-08-12T18:36:55.579Z,52.40
2022-08-12T18:39:22.821Z,52.30
2022-08-12T18:41:54.451Z,53.10
2022-08-12T18:44:35.153Z,53.90
2022-08-12T18:47:10.606Z,53.60
2022-08-12T18:49:48.971Z,54.00
2022-08-12T18:52:30.974Z,54.20
2022-08-12T18:55:08.164Z,54.10
2022-08-12T18:58:07.204Z,55.30
2022-08-12T19:00:29.107Z,55.90
2022-08-12T19:03:38.913Z,56.60
2022-08-12T19:05:59.746Z,57.70
2022-08-12T19:08:31.014Z,56.00
2022-08-12T19:11:16.837Z,56.50
2022-08-12T19:14:05.125Z,56.80
2022-08-12T19:16:39.939Z,57.50
2022-08-12T19:19:09.776Z,59.30
2022-08-12T19:21:38.533Z,60.10
2022-08-12T19:24:26.283Z,58.70
2022-08-12T19:26:57.338Z,58.80
2022-08-12T19:29:24.943Z,59.60
2022-08-12T19:31:57.406Z,59.00
2022-08-12T19:38:04.332Z,59.80
2022-08-12T19:40:31.649Z,60.90
2022-08-12T19:43:18.897Z,60.20
2022-08-12T19:45:54.468Z,60.00
2022-08-12T19:48:27.667Z,61.40
2022-08-12T19:50:57.877Z,62.50
2022-08-12T19:53:27.777Z,62.80
2022-08-12T19:55:57.301Z,63.10
2022-08-12T19:58:24.903Z,62.90
2022-08-12T20:00:54.148Z,62.70
2022-08-12T20:03:39.281Z,64.10
2022-08-12T20:06:15.709Z,64.30
2022-08-12T20:08:49.395Z,63.70
2022-08-12T20:12:10.016Z,64.70
2022-08-12T20:14:18.034Z,65.70
2022-08-12T20:16:54.415Z,65.40
2022-08-12T20:20:01.157Z,65.80
2022-08-12T20:22:24.792Z,65.60
2022-08-12T20:25:01.260Z,65.70
2022-08-12T20:28:04.962Z,65.90
2022-08-12T20:30:20.202Z,65.90
2022-08-12T20:32:59.210Z,65.70
2022-08-12T20:35:39.105Z,65.70
2022-08-12T20:38:26.749Z,66.30
2022-08-12T20:40:55.652Z,67.50
2022-08-12T20:43:24.006Z,67.70
2022-08-12T20:45:57.946Z,67.30
2022-08-12T20:48:28.689Z,69.40
2022-08-12T20:51:04.311Z,68.80
2022-08-12T20:53:57.869Z,68.70
2022-08-12T20:56:30.809Z,69.10
2022-08-12T20:59:00.926Z,69.30
2022-08-12T21:01:45.986Z,69.60
2022-08-12T21:04:33.733Z,69.60
2022-08-12T21:07:04.660Z,70.30
2022-08-12T21:09:49.550Z,70.70
2022-08-12T21:12:28.109Z,70.80
2022-08-12T21:15:23.305Z,70.20
2022-08-12T21:18:11.149Z,70.30
2022-08-12T21:20:55.268Z,70.50
2022-08-12T21:23:23.258Z,70.40
2022-08-12T21:25:56.461Z,70.40
2022-08-12T21:28:27.644Z,70.20
2022-08-12T21:32:35.505Z,70.00
2022-08-12T21:34:07.099Z,70.20
2022-08-12T21:36:39.960Z,70.30
2022-08-12T21:39:21.091Z,70.50
2022-08-12T21:41:53.744Z,70.70
2022-08-12T21:44:24.494Z,70.70
2022-08-12T21:47:20.366Z,70.90
2022-08-12T21:49:53.810Z,71.40
2022-08-12T21:52:28.268Z,71.20
2022-08-12T21:55:08.316Z,70.30
2022-08-12T21:57:51.249Z,70.10
2022-08-12T22:00:32.303Z,70.20
2022-08-12T22:04:01.627Z,70.40
2022-08-12T22:06:31.686Z,70.50
2022-08-12T22:09:16.299Z,70.50
2022-08-12T22:11:56.311Z,70.50
2022-08-12T22:14:28.005Z,71.30
2022-08-12T22:16:56.649Z,71.30
2022-08-12T22:19:24.484Z,71.40
2022-08-12T22:21:54.537Z,71.60
2022-08-12T22:24:26.298Z,72.00
2022-08-12T22:26:55.733Z,72.20
2022-08-12T22:29:42.578Z,72.40
2022-08-12T22:32:12.122Z,72.30
2022-08-12T22:34:40.003Z,72.20
2022-08-12T22:37:19.928Z,72.50
2022-08-12T22:39:49.022Z,72.70
2022-08-12T22:42:35.776Z,73.20
2022-08-12T22:45:23.023Z,73.00
2022-08-12T22:47:55.846Z,72.80
2022-08-12T22:50:28.847Z,73.00
2022-08-12T22:53:15.080Z,73.80
2022-08-12T22:55:59.020Z,74.30
2022-08-12T22:58:31.959Z,75.30
2022-08-12T23:01:02.580Z,75.80
2022-08-12T23:03:49.298Z,76.00
2022-08-12T23:06:25.711Z,76.30
2022-08-12T23:08:55.633Z,76.40
2022-08-12T23:11:23.906Z,76.60
2022-08-12T23:13:56.328Z,77.00
2022-08-12T23:16:31.522Z,76.00
2022-08-12T23:19:17.779Z,76.00
2022-08-12T23:22:06.661Z,77.00
2022-08-12T23:24:53.882Z,76.80
2022-08-12T23:27:55.972Z,76.80
2022-08-12T23:30:50.498Z,76.40
2022-08-12T23:34:01.799Z,77.00
2022-08-12T23:36:12.625Z,76.80
2022-08-12T23:38:42.248Z,77.40
2022-08-12T23:41:56.457Z,77.60
2022-08-12T23:44:33.617Z,77.90
2022-08-12T23:47:14.078Z,79.10
2022-08-12T23:49:56.346Z,79.30
2022-08-12T23:52:34.419Z,79.40
2022-08-12T23:55:24.750Z,79.90
2022-08-12T23:58:20.677Z,80.40
